Time;durP1;ratioP1;P1;durP2;ratioP2;P2;SDS_P1;SDS_P2;PMS_P1;PMS_P2;Temp;Humidity;BMP_temperature;BMP_pressure;BME280_temperature;BME280_humidity;BME280_pressure;Samples;Min_cycle;Max_cycle;Signal;HPM_P1;HPM_P2
2022/05/16 00:00:28;;;;;;;4.37;1.80;;;;;;;17.81;70.37;99857.25;1731827;81;21185;-57
2022/05/16 00:02:55;;;;;;;5.33;1.80;;;;;;;17.77;70.11;99856.11;1747025;81;21248;-56
2022/05/16 00:05:24;;;;;;;4.97;1.80;;;;;;;17.79;68.66;99852.72;1674921;84;21957;-58
2022/05/16 00:07:53;;;;;;;5.03;1.67;;;;;;;17.67;68.85;99850.94;1663035;84;21818;-57
2022/05/16 00:10:20;;;;;;;4.53;1.80;;;;;;;17.58;68.98;99858.97;1687289;84;21809;-55
2022/05/16 00:12:47;;;;;;;4.93;1.90;;;;;;;17.47;69.17;99855.36;1680524;84;21608;-64
2022/05/16 00:15:18;;;;;;;4.47;2.27;;;;;;;17.42;68.94;99853.14;1676457;85;21383;-55
2022/05/16 00:17:45;;;;;;;4.63;1.40;;;;;;;17.36;68.86;99850.95;1678376;84;22065;-56
2022/05/16 00:20:14;;;;;;;4.87;2.07;;;;;;;17.25;69.44;99855.23;1689934;84;21290;-55
2022/05/16 00:22:41;;;;;;;6.03;1.80;;;;;;;17.17;69.89;99852.20;1689746;84;21196;-57
2022/05/16 00:25:12;;;;;;;4.63;1.90;;;;;;;17.07;71.02;99852.80;1689158;84;21101;-62
2022/05/16 00:27:39;;;;;;;3.57;1.70;;;;;;;16.83;72.98;99856.03;1666560;84;21267;-54
2022/05/16 00:30:09;;;;;;;6.53;1.87;;;;;;;16.69;75.10;99855.46;1668649;84;22093;-55
2022/05/16 00:32:36;;;;;;;5.30;1.97;;;;;;;16.56;76.61;99854.94;1685158;84;21238;-54
2022/05/16 00:35:04;;;;;;;4.55;1.98;;;;;;;16.31;80.44;99853.36;1686557;84;21393;-62
2022/05/16 00:37:31;;;;;;;6.73;1.80;;;;;;;16.43;77.98;99848.08;1662518;84;21085;-56
2022/05/16 00:40:00;;;;;;;7.67;1.87;;;;;;;16.34;78.51;99843.69;1662103;84;21475;-54
2022/05/16 00:42:28;;;;;;;6.00;1.97;;;;;;;16.22;79.20;99839.77;1661525;86;21286;-55
2022/05/16 00:44:55;;;;;;;8.37;2.27;;;;;;;16.07;79.94;99840.75;1660576;86;21349;-55
2022/05/16 00:47:22;;;;;;;5.50;1.73;;;;;;;16.39;77.27;99837.73;1681872;84;21827;-56
2022/05/16 00:49:50;;;;;;;6.20;2.80;;;;;;;16.42;76.18;99834.65;1681591;84;22007;-55
2022/05/16 00:52:27;;;;;;;4.00;1.85;;;;;;;16.43;75.65;99837.03;1661593;84;21373;-55
2022/05/16 00:54:57;;;;;;;6.03;2.00;;;;;;;16.16;78.42;99835.41;1676237;84;21251;-59
2022/05/16 00:57:35;;;;;;;6.15;2.47;;;;;;;16.40;76.00;99838.02;1683245;84;21074;-62
2022/05/16 01:00:17;;;;;;;3.80;1.80;;;;;;;16.23;76.53;99843.19;1683049;84;21085;-55
2022/05/16 01:05:35;;;;;;;6.10;1.82;;;;;;;16.24;76.08;99848.73;1707279;83;21472;-54
2022/05/16 01:08:09;;;;;;;5.92;1.70;;;;;;;16.19;75.48;99843.36;1726513;82;21327;-56
2022/05/16 01:10:38;;;;;;;8.90;1.90;;;;;;;16.27;74.13;99850.38;1678415;83;21039;-56
2022/05/16 01:13:06;;;;;;;5.70;1.65;;;;;;;16.34;73.67;99850.79;1684841;82;21555;-54
2022/05/16 01:15:46;;;;;;;4.62;1.95;;;;;;;16.30;73.49;99853.88;1714709;82;21058;-56
2022/05/16 01:18:14;;;;;;;4.83;1.87;;;;;;;16.18;74.85;99859.66;1694689;82;20954;-54
2022/05/16 01:21:03;;;;;;;5.67;2.25;;;;;;;16.13;75.57;99862.67;1731167;82;21224;-55
2022/05/16 01:23:34;;;;;;;6.77;2.00;;;;;;;16.00;76.94;99858.45;1738314;82;21026;-54
2022/05/16 01:26:01;;;;;;;5.17;1.60;;;;;;;15.91;78.25;99861.95;1744730;82;22161;-61
2022/05/16 01:28:29;;;;;;;6.83;2.25;;;;;;;15.70;80.22;99854.08;1742906;82;20895;-64
2022/05/16 01:30:56;;;;;;;4.00;1.65;;;;;;;15.63;81.06;99849.92;1726546;82;21500;-56
2022/05/16 01:33:25;;;;;;;5.58;1.92;;;;;;;15.61;82.12;99847.53;1686765;82;21202;-59
2022/05/16 01:35:52;;;;;;;6.65;2.30;;;;;;;15.51;84.06;99853.33;1694646;82;21025;-58
2022/05/16 01:38:22;;;;;;;3.87;1.82;;;;;;;15.48;84.91;99852.45;1736393;82;21077;-58
2022/05/16 01:40:56;;;;;;;3.75;1.82;;;;;;;15.58;83.92;99852.72;1728887;82;21678;-56
2022/05/16 01:43:27;;;;;;;4.78;2.00;;;;;;;15.71;82.53;99860.92;1709175;82;21020;-59
2022/05/16 01:45:54;;;;;;;5.60;1.92;;;;;;;15.66;83.31;99871.33;1679486;85;21285;-61
2022/05/16 01:48:23;;;;;;;4.62;1.80;;;;;;;15.67;82.91;99870.81;1686676;82;20962;-59
2022/05/16 01:50:54;;;;;;;5.45;1.25;;;;;;;15.81;81.93;99871.69;1732957;82;21006;-57
2022/05/16 01:53:21;;;;;;;4.00;1.77;;;;;;;15.77;82.40;99873.17;1671278;83;21104;-58
2022/05/16 01:55:48;;;;;;;4.17;1.75;;;;;;;15.77;82.39;99874.48;1686187;82;20929;-56
2022/05/16 01:58:15;;;;;;;5.97;2.17;;;;;;;15.88;80.94;99874.73;1712613;82;21443;-57
2022/05/16 02:00:42;;;;;;;6.55;2.20;;;;;;;15.98;79.07;99877.59;1715812;82;21041;-64
2022/05/16 02:03:11;;;;;;;7.05;1.87;;;;;;;16.05;79.36;99879.59;1733311;82;21830;-57
2022/05/16 02:05:38;;;;;;;4.50;1.62;;;;;;;16.32;76.66;99873.88;1715637;82;21126;-63
2022/05/16 02:08:07;;;;;;;4.42;2.02;;;;;;;16.51;75.35;99884.55;1692190;83;21635;-57
2022/05/16 02:10:35;;;;;;;4.07;1.97;;;;;;;16.70;74.22;99883.89;1727021;82;21247;-62
2022/05/16 02:13:03;;;;;;;4.57;1.73;;;;;;;16.81;74.03;99884.94;1722179;82;21707;-56
2022/05/16 02:15:32;;;;;;;3.87;1.70;;;;;;;16.91;73.86;99893.84;1693458;82;21334;-56
2022/05/16 02:17:59;;;;;;;4.53;1.70;;;;;;;17.21;72.58;99901.52;1694348;82;21265;-58
2022/05/16 02:20:27;;;;;;;5.00;2.10;;;;;;;17.49;68.26;99901.23;1711326;82;21711;-58
2022/05/16 02:25:45;;;;;;;5.03;1.70;;;;;;;17.29;66.45;99900.88;1706907;82;21345;-64
2022/05/16 02:28:16;;;;;;;5.23;1.93;;;;;;;17.24;66.41;99902.37;1699968;82;21341;-56
2022/05/16 02:30:43;;;;;;;4.65;1.85;;;;;;;17.31;66.16;99899.58;1743530;82;21148;-57
2022/05/16 02:33:13;;;;;;;5.87;2.03;;;;;;;17.42;65.86;99908.47;1743422;82;21037;-62
2022/05/16 02:35:41;;;;;;;4.60;1.93;;;;;;;17.47;65.01;99908.06;1733398;82;21843;-57
2022/05/16 02:38:09;;;;;;;4.40;2.03;;;;;;;17.54;64.85;99907.92;1713898;83;21393;-58
2022/05/16 02:40:37;;;;;;;3.83;1.60;;;;;;;17.66;64.12;99909.97;1715037;82;21216;-64
2022/05/16 02:43:04;;;;;;;5.43;2.20;;;;;;;17.59;64.23;99912.47;1714417;83;21269;-65
2022/05/16 02:45:32;;;;;;;5.93;2.57;;;;;;;17.52;64.21;99915.25;1711778;82;21303;-58
2022/05/16 02:47:59;;;;;;;9.33;2.37;;;;;;;17.29;65.07;99920.62;1713351;82;22400;-57
2022/05/16 02:50:26;;;;;;;5.50;2.07;;;;;;;17.32;65.09;99918.84;1706031;82;21184;-58
2022/05/16 02:52:56;;;;;;;6.13;2.13;;;;;;;17.22;65.24;99918.92;1703896;82;21455;-58
2022/05/16 02:55:23;;;;;;;5.67;2.20;;;;;;;16.70;69.39;99914.95;1708974;83;22351;-59
2022/05/16 02:57:51;;;;;;;5.97;2.03;;;;;;;16.86;69.17;99919.25;1710206;82;21758;-56
2022/05/16 03:00:18;;;;;;;6.10;2.30;;;;;;;16.88;69.62;99915.88;1715346;83;21171;-58
2022/05/16 03:02:45;;;;;;;5.73;2.13;;;;;;;16.58;78.82;99926.02;1713524;83;21277;-59
2022/05/16 03:05:13;;;;;;;4.93;1.73;;;;;;;18.06;71.06;99921.44;1714303;83;21607;-55
2022/05/16 03:07:40;;;;;;;6.07;2.43;;;;;;;18.29;68.24;99925.22;1726963;82;21247;-54
2022/05/16 03:10:08;;;;;;;5.13;2.20;;;;;;;18.51;68.78;99924.47;1731748;82;21266;-57
2022/05/16 03:12:37;;;;;;;6.27;2.27;;;;;;;18.70;66.37;99925.78;1743038;82;21360;-59
2022/05/16 03:15:05;;;;;;;7.17;2.00;;;;;;;20.26;59.05;99920.74;1744278;82;21304;-55
2022/05/16 03:17:33;;;;;;;5.27;1.67;;;;;;;21.29;55.55;99924.13;1730214;82;21698;-56
2022/05/16 03:20:02;;;;;;;3.97;1.70;;;;;;;21.96;50.85;99923.70;1686710;82;21058;-55
2022/05/16 03:22:30;;;;;;;4.47;2.20;;;;;;;22.58;48.54;99922.05;1680516;85;21094;-64
2022/05/16 03:24:57;;;;;;;3.60;1.40;;;;;;;23.63;45.88;99925.50;1689745;82;21239;-61
2022/05/16 03:27:25;;;;;;;6.33;1.97;;;;;;;24.78;42.77;99919.68;1729885;82;21879;-56
2022/05/16 03:29:52;;;;;;;6.23;1.87;;;;;;;25.77;40.42;99920.95;1718911;82;21011;-54
2022/05/16 03:32:20;;;;;;;4.90;1.80;;;;;;;26.69;37.93;99930.02;1735395;82;21046;-55
2022/05/16 03:34:54;;;;;;;4.17;1.40;;;;;;;27.50;36.38;99928.81;1724167;82;21024;-63
2022/05/16 03:37:21;;;;;;;4.87;1.50;;;;;;;28.41;34.53;99928.20;1724341;82;21908;-55
2022/05/16 03:42:34;;;;;;;3.90;2.13;;;;;;;29.84;30.87;99935.47;1684706;85;21671;-56
2022/05/16 03:45:01;;;;;;;4.00;2.00;;;;;;;30.25;30.00;99932.78;1697770;82;21471;-56
2022/05/16 03:47:29;;;;;;;4.27;1.70;;;;;;;30.45;29.15;99932.61;1678556;82;21320;-58
2022/05/16 03:49:56;;;;;;;4.20;1.60;;;;;;;30.76;28.61;99937.16;1735385;82;21103;-56
2022/05/16 03:52:23;;;;;;;6.95;2.42;;;;;;;31.18;27.96;99941.22;1711930;82;21114;-57
2022/05/16 03:54:51;;;;;;;4.50;1.77;;;;;;;31.53;27.25;99935.56;1720799;82;21286;-59
2022/05/16 03:57:18;;;;;;;5.03;1.80;;;;;;;31.74;26.71;99938.20;1724715;82;21056;-58
2022/05/16 03:59:47;;;;;;;3.25;1.70;;;;;;;32.21;26.67;99945.41;1690984;82;21019;-55
2022/05/16 04:02:15;;;;;;;4.42;2.20;;;;;;;32.93;25.99;99944.95;1713642;82;21151;-55
2022/05/16 04:04:43;;;;;;;3.47;2.20;;;;;;;33.13;24.99;99949.42;1713338;82;21059;-57
2022/05/16 04:07:11;;;;;;;4.28;2.00;;;;;;;32.78;25.03;99947.00;1713395;82;21068;-63
2022/05/16 04:09:38;;;;;;;3.50;1.90;;;;;;;31.84;25.23;99946.44;1735417;82;21547;-56
2022/05/16 04:12:06;;;;;;;6.28;2.10;;;;;;;30.42;26.30;99952.89;1733338;82;21034;-57
2022/05/16 04:14:35;;;;;;;6.83;2.75;;;;;;;28.97;27.52;99962.84;1719371;82;21270;-55
2022/05/16 04:17:02;;;;;;;5.33;2.60;;;;;;;27.98;28.59;99956.34;1730368;82;21448;-57
2022/05/16 04:19:29;;;;;;;4.60;2.10;;;;;;;27.03;29.34;99954.20;1711702;82;21050;-56
2022/05/16 04:21:56;;;;;;;5.97;2.30;;;;;;;26.43;30.03;99959.09;1708559;83;21012;-55
2022/05/16 04:24:24;;;;;;;8.60;2.60;;;;;;;25.82;30.92;99967.61;1710143;83;20998;-56
2022/05/16 04:26:52;;;;;;;6.67;2.70;;;;;;;25.26;31.77;99959.61;1701353;82;21230;-59
2022/05/16 04:29:20;;;;;;;6.37;2.97;;;;;;;24.81;32.54;99965.73;1700613;82;21330;-59
2022/05/16 04:31:50;;;;;;;4.33;2.20;;;;;;;24.35;33.27;99960.87;1737228;82;20938;-58
2022/05/16 04:34:17;;;;;;;4.90;2.33;;;;;;;24.04;33.82;99971.27;1711103;82;21685;-59
2022/05/16 04:36:44;;;;;;;6.60;2.20;;;;;;;23.81;34.36;99973.31;1732554;82;21048;-64
2022/05/16 04:39:11;;;;;;;8.67;1.90;;;;;;;23.69;34.71;99964.89;1729523;82;21806;-59
2022/05/16 04:44:24;;;;;;;4.23;1.70;;;;;;;24.38;35.45;99978.42;1712226;82;20971;-57
2022/05/16 04:46:51;;;;;;;4.80;1.63;;;;;;;25.19;33.95;99972.78;1731827;82;21008;-63
2022/05/16 04:49:19;;;;;;;8.03;2.93;;;;;;;25.36;33.37;99970.94;1730458;82;21414;-55
2022/05/16 04:51:47;;;;;;;6.37;2.73;;;;;;;25.23;33.00;99970.33;1720264;82;21857;-55
2022/05/16 04:54:14;;;;;;;6.47;3.00;;;;;;;24.98;33.34;99967.41;1711165;82;21675;-55
2022/05/16 04:56:43;;;;;;;6.70;2.50;;;;;;;25.00;33.47;99971.90;1734281;82;20968;-63
2022/05/16 04:59:12;;;;;;;6.00;2.87;;;;;;;25.07;33.28;99966.23;1729428;82;20970;-56
2022/05/16 05:01:38;;;;;;;7.00;2.70;;;;;;;25.06;33.15;99966.77;1741723;82;21295;-54
2022/05/16 05:04:06;;;;;;;6.50;2.53;;;;;;;24.98;33.28;99970.86;1709442;82;21263;-56
2022/05/16 05:06:34;;;;;;;6.60;2.90;;;;;;;24.99;33.28;99972.98;1714876;81;20974;-55
2022/05/16 05:09:02;;;;;;;9.90;2.90;;;;;;;25.05;33.16;99975.06;1737370;81;21668;-61
2022/05/16 05:14:34;;;;;;;5.23;2.33;;;;;;;26.11;33.07;99963.95;1701786;81;20995;-54
2022/05/16 05:17:04;;;;;;;5.53;2.40;;;;;;;27.39;31.72;99972.45;1716300;81;22417;-54
2022/05/16 05:19:32;;;;;;;5.10;2.60;;;;;;;28.58;29.78;99961.80;1736632;81;21015;-56
2022/05/16 05:21:59;;;;;;;7.20;2.40;;;;;;;29.48;28.72;99965.38;1733082;81;21430;-55
2022/05/16 05:24:27;;;;;;;6.20;2.40;;;;;;;30.39;27.81;99962.16;1691704;81;21073;-58
2022/05/16 05:26:54;;;;;;;5.30;2.83;;;;;;;31.31;26.74;99964.98;1715294;81;21040;-59
2022/05/16 05:29:22;;;;;;;5.28;2.40;;;;;;;32.25;25.44;99960.36;1704671;81;21251;-57
2022/05/16 05:31:51;;;;;;;5.83;2.80;;;;;;;32.85;24.30;99963.42;1703476;81;21027;-55
2022/05/16 05:34:18;;;;;;;3.62;1.92;;;;;;;33.25;24.11;99964.80;1717773;81;21064;-58
2022/05/16 05:36:46;;;;;;;3.90;1.90;;;;;;;33.88;23.28;99971.77;1731988;81;20937;-62
2022/05/16 05:39:13;;;;;;;4.37;2.10;;;;;;;34.34;22.48;99965.41;1732338;81;21840;-56
2022/05/16 05:41:40;;;;;;;3.58;1.70;;;;;;;34.70;22.33;99964.12;1698263;81;21311;-55
2022/05/16 05:44:09;;;;;;;3.90;2.10;;;;;;;34.95;21.84;99961.39;1701591;81;21579;-56
2022/05/16 05:46:38;;;;;;;3.50;1.60;;;;;;;35.31;21.49;99962.95;1706900;81;20993;-57
2022/05/16 05:49:05;;;;;;;3.35;1.52;;;;;;;35.62;20.93;99963.95;1715846;81;21446;-57
2022/05/16 05:51:33;;;;;;;3.52;1.37;;;;;;;36.01;20.50;99966.61;1743767;81;21424;-56
2022/05/16 05:54:00;;;;;;;3.33;1.40;;;;;;;36.14;19.66;99964.48;1721444;81;21216;-56
2022/05/16 05:56:28;;;;;;;3.00;1.40;;;;;;;35.94;19.68;99967.23;1729754;81;21456;-63
2022/05/16 05:58:56;;;;;;;3.80;1.40;;;;;;;35.98;19.61;99968.10;1717322;81;22435;-55
2022/05/16 06:01:23;;;;;;;3.62;1.40;;;;;;;35.98;19.69;99977.59;1714610;81;21574;-56
2022/05/16 06:03:51;;;;;;;4.17;1.90;;;;;;;35.81;19.60;99982.12;1726357;81;21461;-57
2022/05/16 06:06:18;;;;;;;4.10;1.72;;;;;;;35.98;19.45;99977.59;1732183;81;21112;-56
2022/05/16 06:08:45;;;;;;;5.87;1.65;;;;;;;35.76;19.41;99983.75;1709707;82;21022;-63
2022/05/16 06:11:13;;;;;;;4.05;1.70;;;;;;;35.53;19.64;99985.84;1712426;83;21473;-64
2022/05/16 06:13:40;;;;;;;4.78;2.15;;;;;;;35.42;19.69;99986.75;1713204;83;20894;-55
2022/05/16 06:16:08;;;;;;;4.22;1.95;;;;;;;35.51;19.56;99989.50;1713125;83;21470;-56
2022/05/16 06:18:37;;;;;;;4.30;1.85;;;;;;;35.37;19.47;99993.25;1681247;82;21104;-57
2022/05/16 06:21:04;;;;;;;4.12;2.10;;;;;;;35.54;19.49;99986.08;1677919;85;21043;-56
2022/05/16 06:23:32;;;;;;;4.28;1.90;;;;;;;35.26;19.42;99992.25;1677870;85;22362;-57
2022/05/16 06:26:00;;;;;;;3.77;1.92;;;;;;;34.96;19.71;99987.91;1679139;82;21808;-56
2022/05/16 06:28:29;;;;;;;4.35;1.90;;;;;;;35.01;20.26;99978.20;1733960;82;21054;-63
2022/05/16 06:30:57;;;;;;;5.58;2.33;;;;;;;35.65;20.26;99983.58;1743550;82;21503;-56
2022/05/16 06:33:28;;;;;;;4.08;1.70;;;;;;;36.15;19.47;99983.13;1742973;82;21097;-56
2022/05/16 06:35:56;;;;;;;4.45;1.98;;;;;;;36.13;19.14;99982.70;1722273;82;21330;-55
2022/05/16 06:38:26;;;;;;;4.80;2.30;;;;;;;35.82;19.00;99993.17;1712878;83;21033;-59
2022/05/16 06:40:53;;;;;;;;;;;;;;;35.35;19.06;99990.12;1730816;82;21358;-56
2022/05/16 06:43:21;;;;;;;3.98;1.82;;;;;;;34.82;19.01;99989.75;1720679;82;21325;-57
2022/05/16 06:45:49;;;;;;;3.87;1.62;;;;;;;34.69;19.24;99989.05;1730790;82;21439;-56
2022/05/16 06:48:16;;;;;;;4.67;1.80;;;;;;;34.96;18.98;99984.63;1721349;82;20999;-64
2022/05/16 06:50:44;;;;;;;3.55;1.80;;;;;;;35.07;18.97;99992.44;1741207;82;21018;-55
2022/05/16 06:53:24;;;;;;;3.83;1.80;;;;;;;34.71;19.15;99992.21;1742860;82;21066;-56
2022/05/16 06:55:51;;;;;;;2.87;1.75;;;;;;;34.59;19.18;99999.88;1742530;82;21231;-56
2022/05/16 06:58:18;;;;;;;3.33;2.10;;;;;;;34.83;18.92;99994.02;1709341;82;21151;-56
2022/05/16 07:00:46;;;;;;;4.78;1.82;;;;;;;34.96;18.62;99985.98;1679418;82;21582;-55
2022/05/16 07:03:14;;;;;;;4.05;2.10;;;;;;;34.78;19.04;99989.67;1716779;82;21472;-56
2022/05/16 07:05:42;;;;;;;4.72;2.37;;;;;;;35.05;18.96;99993.95;1732076;82;21006;-55
2022/05/16 07:08:09;;;;;;;3.90;2.22;;;;;;;35.35;18.59;99983.35;1716226;82;21166;-56
2022/05/16 07:10:36;;;;;;;3.47;1.70;;;;;;;35.62;18.66;99990.29;1707984;82;21523;-57
2022/05/16 07:13:05;;;;;;;3.45;2.20;;;;;;;35.73;17.94;99989.92;1708909;83;21000;-61
2022/05/16 07:15:34;;;;;;;3.30;2.22;;;;;;;35.72;17.87;99997.82;1709220;83;22001;-56
2022/05/16 07:18:01;;;;;;;4.33;1.98;;;;;;;34.87;18.56;100003.01;1720539;82;21441;-55
2022/05/16 07:20:28;;;;;;;4.10;1.82;;;;;;;35.05;18.67;100002.08;1720469;82;21165;-56
2022/05/16 07:22:58;;;;;;;3.47;2.05;;;;;;;35.52;17.94;99999.77;1708614;83;21064;-58
2022/05/16 07:25:26;;;;;;;4.75;2.40;;;;;;;35.61;18.04;99992.77;1709380;83;20918;-57
2022/05/16 07:27:57;;;;;;;4.25;2.30;;;;;;;35.48;17.79;100008.38;1709707;83;21513;-55
2022/05/16 07:30:30;;;;;;;4.25;1.95;;;;;;;34.98;17.96;100012.16;1680664;85;21048;-55
2022/05/16 07:32:58;;;;;;;2.90;1.57;;;;;;;34.47;17.98;100008.03;1680831;85;21906;-56
2022/05/16 07:35:30;;;;;;;3.27;1.87;;;;;;;34.38;18.11;100005.52;1705940;82;21091;-57
2022/05/16 07:37:58;;;;;;;5.22;2.30;;;;;;;34.58;17.79;100007.75;1712463;82;21032;-55
2022/05/16 07:40:32;;;;;;;6.28;1.90;;;;;;;34.75;17.62;99999.84;1711800;82;20997;-57
2022/05/16 07:42:59;;;;;;;3.67;1.77;;;;;;;35.21;17.43;100002.80;1694464;82;20991;-56
2022/05/16 07:45:27;;;;;;;2.55;1.20;;;;;;;35.36;17.37;100008.53;1708305;82;21108;-56
2022/05/16 07:47:55;;;;;;;3.42;1.40;;;;;;;35.31;17.33;100002.25;1718664;82;21362;-56
2022/05/16 07:50:25;;;;;;;2.58;1.42;;;;;;;34.97;17.33;100016.58;1738268;82;20939;-56
2022/05/16 07:52:54;;;;;;;3.10;1.60;;;;;;;34.77;17.45;100002.97;1738218;82;21058;-57
2022/05/16 07:55:23;;;;;;;4.50;1.70;;;;;;;34.67;17.44;100018.99;1738654;82;20915;-58
2022/05/16 07:57:50;;;;;;;3.62;2.20;;;;;;;34.71;17.04;100028.77;1709746;82;21580;-57
2022/05/16 08:00:19;;;;;;;4.03;1.90;;;;;;;34.74;17.07;100024.00;1709201;82;21572;-57
2022/05/16 08:02:46;;;;;;;4.83;2.30;;;;;;;34.85;17.02;100009.33;1730110;82;21009;-56
2022/05/16 08:05:15;;;;;;;3.25;1.98;;;;;;;35.13;17.39;100022.77;1726587;82;21093;-56
2022/05/16 08:10:31;;;;;;;3.80;2.20;;;;;;;34.95;16.45;100017.49;1713406;83;21885;-57
2022/05/16 08:13:00;;;;;;;6.60;3.08;;;;;;;34.65;17.22;100017.19;1713492;82;20874;-55
2022/05/16 08:15:28;;;;;;;4.20;2.45;;;;;;;34.65;17.22;100017.19;1727621;82;21062;-63
2022/05/16 08:17:57;;;;;;;5.72;3.05;;;;;;;34.88;16.90;100022.17;1724312;82;21113;-55
2022/05/16 08:20:25;;;;;;;4.17;2.70;;;;;;;34.89;16.49;100027.02;1730750;82;21021;-58
2022/05/16 08:22:52;;;;;;;4.37;1.98;;;;;;;34.16;16.92;100028.33;1687872;82;21564;-56
2022/05/16 08:25:19;;;;;;;3.95;2.42;;;;;;;34.61;16.94;100026.01;1689778;82;21042;-63
2022/05/16 08:27:50;;;;;;;3.47;1.87;;;;;;;35.16;16.69;100025.31;1726937;82;22382;-55
2022/05/16 08:30:19;;;;;;;4.67;2.20;;;;;;;35.29;16.45;100026.20;1694178;82;21440;-55
2022/05/16 08:32:48;;;;;;;3.87;2.20;;;;;;;35.48;15.97;100029.48;1692054;82;21144;-56
2022/05/16 08:35:15;;;;;;;5.95;2.62;;;;;;;35.23;16.15;100030.89;1726228;82;21260;-56
2022/05/16 08:40:55;;;;;;;5.35;2.45;;;;;;;35.07;15.91;100030.37;1709519;82;21440;-56
2022/05/16 08:43:45;;;;;;;4.75;3.17;;;;;;;34.49;15.90;100034.23;1710359;82;21317;-57
2022/05/16 08:46:27;;;;;;;5.97;2.90;;;;;;;33.68;16.49;100042.27;1684534;85;21439;-59
2022/05/16 08:48:57;;;;;;;6.17;3.40;;;;;;;33.44;16.70;100029.03;1685561;82;21224;-57
2022/05/16 08:51:30;;;;;;;6.50;3.40;;;;;;;33.11;16.84;100028.67;1707031;82;21664;-60
2022/05/16 08:54:20;;;;;;;5.58;3.20;;;;;;;32.36;17.33;100043.77;1735171;82;20969;-62
2022/05/16 08:56:48;;;;;;;5.77;2.97;;;;;;;31.79;17.66;100043.68;1695505;82;21071;-55
2022/05/16 08:59:22;;;;;;;6.67;2.83;;;;;;;31.65;18.07;100038.55;1713301;83;21547;-56
2022/05/16 09:01:59;;;;;;;6.50;2.80;;;;;;;32.14;18.09;100034.73;1680061;82;21223;-61
2022/05/16 09:04:35;;;;;;;5.57;3.10;;;;;;;32.83;16.88;100026.40;1678839;82;21291;-56
2022/05/16 09:07:22;;;;;;;6.37;2.77;;;;;;;33.03;16.15;100029.55;1690142;82;21939;-56
2022/05/16 09:10:12;;;;;;;3.97;1.97;;;;;;;32.95;16.41;100038.56;1698967;82;21414;-55
2022/05/16 09:12:54;;;;;;;4.97;2.17;;;;;;;32.82;16.47;100032.93;1718287;82;20963;-56
2022/05/16 09:15:40;;;;;;;;;;;;;;;32.84;16.60;100032.80;1674944;85;22478;-57
2022/05/16 09:18:38;;;;;;;4.07;2.10;;;;;;;32.50;16.66;100034.02;1689527;82;20139;-57
2022/05/16 09:21:32;;;;;;;3.73;1.80;;;;;;;32.21;17.16;100035.75;1719354;82;21006;-56
2022/05/16 09:24:13;;;;;;;3.57;1.97;;;;;;;32.61;17.23;100028.98;1709608;83;20981;-65
2022/05/16 09:27:10;;;;;;;4.33;2.03;;;;;;;33.14;16.56;100034.72;1709541;83;20957;-58
2022/05/16 09:29:42;;;;;;;6.40;2.57;;;;;;;33.02;16.46;100028.55;1707023;82;21102;-59
2022/05/16 09:32:30;;;;;;;6.07;2.00;;;;;;;32.93;16.58;100029.47;1676432;82;21696;-55
2022/05/16 09:34:57;;;;;;;5.23;2.40;;;;;;;33.06;16.16;100025.39;1700734;82;21724;-58
2022/05/16 09:37:25;;;;;;;5.47;1.80;;;;;;;32.85;15.97;100017.41;1708404;83;20989;-58
2022/05/16 09:39:53;;;;;;;2.83;1.40;;;;;;;32.88;16.45;100019.41;1717001;82;21367;-57
2022/05/16 09:42:26;;;;;;;2.83;1.50;;;;;;;32.89;15.70;100004.81;1700589;82;21229;-56
2022/05/16 09:45:03;;;;;;;3.13;1.80;;;;;;;32.57;16.24;100020.77;1689197;82;21588;-56
2022/05/16 09:47:36;;;;;;;4.33;1.57;;;;;;;32.62;16.36;100012.47;1729657;82;22144;-55
2022/05/16 09:50:23;;;;;;;4.53;2.47;;;;;;;32.72;16.45;100009.86;1726558;82;21082;-57
2022/05/16 09:53:09;;;;;;;3.30;1.83;;;;;;;32.79;16.44;100009.30;1704433;82;21063;-59
2022/05/16 09:55:51;;;;;;;4.20;1.80;;;;;;;32.90;16.07;100007.16;1695864;82;21655;-56
2022/05/16 09:58:33;;;;;;;4.43;1.90;;;;;;;33.12;15.56;100012.67;1721089;82;20977;-64
2022/05/16 10:01:04;;;;;;;4.30;2.27;;;;;;;33.44;15.77;100010.11;1731933;82;21077;-55
2022/05/16 10:03:46;;;;;;;4.70;1.90;;;;;;;33.93;15.74;100005.88;1700680;82;21032;-56
2022/05/16 10:06:30;;;;;;;3.53;2.00;;;;;;;34.30;14.96;100009.75;1694565;82;21553;-56
2022/05/16 10:09:16;;;;;;;3.83;1.95;;;;;;;34.64;14.70;100011.56;1725339;82;21066;-56
2022/05/16 10:11:48;;;;;;;3.58;1.72;;;;;;;35.01;14.33;99995.80;1705329;82;21011;-56
2022/05/16 10:14:15;;;;;;;3.80;1.60;;;;;;;35.05;14.26;99999.38;1720014;82;21022;-57
2022/05/16 10:16:47;;;;;;;3.65;1.82;;;;;;;34.96;14.59;100002.23;1672071;83;21531;-56
2022/05/16 10:19:18;;;;;;;4.62;1.60;;;;;;;34.76;14.86;100006.04;1714027;82;21042;-63
2022/05/16 10:22:03;;;;;;;1.02;0.70;;;;;;;35.12;14.14;100001.42;1738936;82;22400;-57
2022/05/16 10:24:45;;;;;;;0.85;0.50;;;;;;;34.88;13.96;99999.73;1740174;82;20875;-56
2022/05/16 10:27:12;;;;;;;1.17;0.68;;;;;;;34.63;14.29;100005.38;1692763;83;20942;-57
2022/05/16 10:29:48;;;;;;;1.55;0.78;;;;;;;34.43;14.57;99996.91;1702424;82;21106;-55
2022/05/16 10:35:28;;;;;;;3.87;1.00;;;;;;;34.27;15.26;99992.86;1710428;83;21254;-57
2022/05/16 10:37:58;;;;;;;2.13;0.80;;;;;;;34.44;14.94;100001.18;1732004;82;20997;-65
2022/05/16 10:40:41;;;;;;;1.60;0.73;;;;;;;34.68;14.14;99989.42;1729772;82;21538;-57
2022/05/16 10:43:49;;;;;;;2.47;0.60;;;;;;;34.76;14.44;99988.44;1706331;82;21692;-57
2022/05/16 10:46:20;;;;;;;1.12;0.70;;;;;;;34.95;15.03;99983.06;1698239;82;21026;-55
2022/05/16 10:49:11;;;;;;;1.72;0.82;;;;;;;35.37;13.94;99987.05;1733995;82;21109;-55
2022/05/16 10:51:57;;;;;;;2.12;0.70;;;;;;;35.18;14.18;99981.83;1715484;82;21038;-62
2022/05/16 10:54:26;;;;;;;2.02;0.75;;;;;;;35.02;14.00;99969.70;1727154;82;21586;-58
2022/05/16 10:57:31;;;;;;;1.52;0.70;;;;;;;34.90;14.28;99984.70;1709138;82;21072;-58
2022/05/16 11:00:06;;;;;;;2.30;0.50;;;;;;;35.00;14.54;99987.44;1678965;82;20983;-57
2022/05/16 11:03:22;;;;;;;1.00;0.60;;;;;;;35.03;13.92;99978.61;1730246;82;21470;-57
2022/05/16 11:06:12;;;;;;;0.70;0.53;;;;;;;34.86;13.91;99975.72;1687627;82;21541;-55
2022/05/16 11:09:04;;;;;;;0.60;0.50;;;;;;;34.59;14.11;99971.45;1704921;82;21397;-57
2022/05/16 11:11:42;;;;;;;2.40;0.50;;;;;;;34.33;13.97;99977.38;1708063;82;21521;-55
2022/05/16 11:14:27;;;;;;;4.17;0.50;;;;;;;34.25;14.09;99951.86;1732050;82;21520;-55
2022/05/16 11:16:58;;;;;;;1.72;0.40;;;;;;;34.33;14.51;99963.06;1708561;82;21543;-56
2022/05/16 11:19:46;;;;;;;1.35;0.60;;;;;;;34.23;14.13;99964.36;1704055;82;21055;-57
2022/05/16 11:22:39;;;;;;;0.73;0.40;;;;;;;33.89;14.38;99961.17;1709023;82;20984;-57
2022/05/16 11:25:17;;;;;;;1.30;0.60;;;;;;;33.66;14.73;99946.66;1730581;82;21018;-56
2022/05/16 11:28:18;;;;;;;0.97;0.40;;;;;;;33.73;14.57;99963.07;1702142;82;21126;-64
2022/05/16 11:30:53;;;;;;;1.10;0.60;;;;;;;33.71;14.86;99965.89;1685260;82;21139;-56
2022/05/16 11:33:53;;;;;;;3.77;0.50;;;;;;;34.06;14.78;99960.09;1724564;82;20989;-56
2022/05/16 11:37:12;;;;;;;1.40;0.50;;;;;;;34.45;14.78;99952.13;1730638;82;21047;-58
2022/05/16 11:39:52;;;;;;;1.98;0.40;;;;;;;34.34;14.70;99951.09;1682306;82;21042;-56
2022/05/16 11:42:33;;;;;;;1.53;0.50;;;;;;;34.04;14.38;99956.94;1699691;82;21410;-64
2022/05/16 11:45:06;;;;;;;1.23;0.50;;;;;;;33.45;14.15;99971.71;1724520;82;22517;-57
2022/05/16 11:47:55;;;;;;;0.90;0.43;;;;;;;32.70;14.52;99965.68;1711566;82;21045;-60
2022/05/16 11:50:42;;;;;;;1.27;0.50;;;;;;;32.18;15.07;99966.30;1708987;82;21029;-58
2022/05/16 11:53:38;;;;;;;2.90;0.43;;;;;;;32.08;15.36;99973.47;1707762;82;21633;-56
2022/05/16 12:01:39;;;;;;;2.50;0.80;;;;;;;31.38;15.94;99965.80;1688452;82;21056;-58
2022/05/16 12:04:22;;;;;;;1.00;0.50;;;;;;;31.32;16.09;99950.39;1703082;82;21118;-64
2022/05/16 12:06:54;;;;;;;2.33;0.40;;;;;;;31.16;15.82;99959.59;1705489;82;21566;-57
2022/05/16 12:09:31;;;;;;;;;;;;;;;31.04;16.00;99949.32;1699110;82;21110;-56
2022/05/16 12:12:07;;;;;;;1.53;0.47;;;;;;;31.00;16.18;99947.84;1727769;82;21141;-62
2022/05/16 12:14:40;;;;;;;0.53;0.30;;;;;;;31.20;16.65;99955.69;1683213;85;21107;-58
2022/05/16 12:17:21;;;;;;;2.73;0.80;;;;;;;31.41;16.27;99944.95;1684236;85;21274;-57
2022/05/16 12:19:52;;;;;;;1.85;0.23;;;;;;;31.56;15.86;99941.64;1684231;85;21591;-56
2022/05/16 12:22:33;;;;;;;0.68;0.33;;;;;;;31.54;16.09;99945.21;1714597;82;22382;-57